CheckWX is a tool to help pilots better visualize weather data.  It is not intended as a substitute for an official pre-flight weather briefing.

04:53:01 UTC

KASG METAR
Springdale Municipal Airport
Springdale, Arkansas, USA
Current

3 hours ago

KASG 180148Z 08003KT 10SM BKN075 21/21 A2993
Observed
Jun-18 @ 01:48 UTC
Wind
  • 080° at 3 KTS
Visibility
10 SM
Flight Rules
VFR
Cloud Levels
  • Broken at 7,500' AGL
Temperature
21°C / 70°F
Dewpoint
21°C / 70°F
Humidity
100%
Altimeter
29.93" Hg
Pressure
1013.52 hPa
Previous

4 hours ago

KASG 180048Z 06004KT 10SM BKN027 BKN043 22/22 A2993
Observed
Jun-18 @ 00:48 UTC
Wind
  • 060° at 4 KTS
Visibility
10 SM
Flight Rules
MVFR
Cloud Levels
  • Broken at 2,700' AGL
  • Broken at 4,300' AGL
Temperature
22°C / 72°F
Dewpoint
22°C / 72°F
Humidity
100%
Altimeter
29.93" Hg
Pressure
1013.52 hPa
Previous

5 hours ago

KASG 172348Z 15005KT 10SM BKN029 BKN034 23/21 A2991
Observed
Jun-17 @ 23:48 UTC
Wind
  • 150° at 5 KTS
Visibility
10 SM
Flight Rules
MVFR
Cloud Levels
  • Broken at 2,900' AGL
  • Broken at 3,400' AGL
Temperature
23°C / 73°F
Dewpoint
21°C / 70°F
Humidity
89%
Altimeter
29.91" Hg
Pressure
1012.92 hPa